sensor_id;sensor_type;location;lat;lon;timestamp;P1;durP1;ratioP1;P2;durP2;ratioP2
67562;SDS011;54392;53.556;49.214;2022-11-24T00:01:28;3.28;;;2.97;;
67562;SDS011;54392;53.556;49.214;2022-11-24T00:04:01;4.05;;;3.62;;
67562;SDS011;54392;53.556;49.214;2022-11-24T00:06:33;56.08;;;52.97;;
67562;SDS011;54392;53.556;49.214;2022-11-24T00:09:04;4.28;;;3.87;;
67562;SDS011;54392;53.556;49.214;2022-11-24T00:11:31;4.07;;;3.60;;
67562;SDS011;54392;53.556;49.214;2022-11-24T00:14:02;3.58;;;3.28;;
67562;SDS011;54392;53.556;49.214;2022-11-24T00:16:37;4.35;;;3.25;;
67562;SDS011;54392;53.556;49.214;2022-11-24T00:19:05;3.60;;;3.30;;
67562;SDS011;54392;53.556;49.214;2022-11-24T00:21:33;3.05;;;2.83;;
67562;SDS011;54392;53.556;49.214;2022-11-24T00:24:00;3.25;;;2.90;;
67562;SDS011;54392;53.556;49.214;2022-11-24T00:29:04;2.72;;;2.53;;
67562;SDS011;54392;53.556;49.214;2022-11-24T00:31:33;2.90;;;2.60;;
67562;SDS011;54392;53.556;49.214;2022-11-24T00:34:04;3.12;;;2.92;;
67562;SDS011;54392;53.556;49.214;2022-11-24T00:36:34;5.30;;;4.62;;
67562;SDS011;54392;53.556;49.214;2022-11-24T00:39:04;2.83;;;2.53;;
67562;SDS011;54392;53.556;49.214;2022-11-24T00:41:32;3.78;;;3.03;;
67562;SDS011;54392;53.556;49.214;2022-11-24T00:44:01;5.20;;;2.62;;
67562;SDS011;54392;53.556;49.214;2022-11-24T00:46:31;3.92;;;3.25;;
67562;SDS011;54392;53.556;49.214;2022-11-24T00:48:59;5.07;;;3.80;;
67562;SDS011;54392;53.556;49.214;2022-11-24T00:51:29;4.10;;;3.67;;
67562;SDS011;54392;53.556;49.214;2022-11-24T00:54:03;5.18;;;3.20;;
67562;SDS011;54392;53.556;49.214;2022-11-24T00:56:35;4.40;;;3.03;;
67562;SDS011;54392;53.556;49.214;2022-11-24T00:59:01;2.80;;;2.55;;
67562;SDS011;54392;53.556;49.214;2022-11-24T01:01:30;2.72;;;2.53;;
67562;SDS011;54392;53.556;49.214;2022-11-24T01:03:59;5.62;;;3.60;;
67562;SDS011;54392;53.556;49.214;2022-11-24T01:06:30;3.92;;;2.95;;
67562;SDS011;54392;53.556;49.214;2022-11-24T01:08:57;3.22;;;2.83;;
67562;SDS011;54392;53.556;49.214;2022-11-24T01:11:24;3.28;;;2.92;;
67562;SDS011;54392;53.556;49.214;2022-11-24T01:13:53;3.28;;;2.92;;
67562;SDS011;54392;53.556;49.214;2022-11-24T01:16:24;3.30;;;3.00;;
67562;SDS011;54392;53.556;49.214;2022-11-24T01:19:03;3.22;;;2.92;;
67562;SDS011;54392;53.556;49.214;2022-11-24T01:21:29;3.70;;;3.28;;
67562;SDS011;54392;53.556;49.214;2022-11-24T01:23:57;4.22;;;3.55;;
67562;SDS011;54392;53.556;49.214;2022-11-24T01:26:32;4.62;;;3.28;;
67562;SDS011;54392;53.556;49.214;2022-11-24T01:29:06;4.93;;;4.15;;
67562;SDS011;54392;53.556;49.214;2022-11-24T01:31:34;3.78;;;3.42;;
67562;SDS011;54392;53.556;49.214;2022-11-24T01:34:01;3.17;;;2.78;;
67562;SDS011;54392;53.556;49.214;2022-11-24T01:36:28;3.70;;;2.80;;
67562;SDS011;54392;53.556;49.214;2022-11-24T01:38:54;3.95;;;3.30;;
67562;SDS011;54392;53.556;49.214;2022-11-24T01:41:24;4.85;;;3.20;;
67562;SDS011;54392;53.556;49.214;2022-11-24T01:43:56;2.37;;;2.12;;
67562;SDS011;54392;53.556;49.214;2022-11-24T01:46:43;7.90;;;3.87;;
67562;SDS011;54392;53.556;49.214;2022-11-24T01:49:11;3.67;;;2.53;;
67562;SDS011;54392;53.556;49.214;2022-11-24T01:54:34;4.15;;;3.45;;
67562;SDS011;54392;53.556;49.214;2022-11-24T02:00:08;5.12;;;3.80;;
67562;SDS011;54392;53.556;49.214;2022-11-24T02:02:38;6.45;;;3.58;;
67562;SDS011;54392;53.556;49.214;2022-11-24T02:05:14;5.25;;;3.95;;
67562;SDS011;54392;53.556;49.214;2022-11-24T02:07:56;5.07;;;3.28;;
67562;SDS011;54392;53.556;49.214;2022-11-24T02:10:27;8.98;;;4.82;;
67562;SDS011;54392;53.556;49.214;2022-11-24T02:12:55;4.18;;;3.78;;
67562;SDS011;54392;53.556;49.214;2022-11-24T02:15:25;4.43;;;4.00;;
67562;SDS011;54392;53.556;49.214;2022-11-24T02:17:51;4.90;;;4.18;;
67562;SDS011;54392;53.556;49.214;2022-11-24T02:20:20;5.32;;;4.12;;
67562;SDS011;54392;53.556;49.214;2022-11-24T02:23:03;7.87;;;4.18;;
67562;SDS011;54392;53.556;49.214;2022-11-24T02:28:16;5.68;;;5.00;;
67562;SDS011;54392;53.556;49.214;2022-11-24T02:30:46;5.28;;;4.12;;
67562;SDS011;54392;53.556;49.214;2022-11-24T02:33:12;5.18;;;3.83;;
67562;SDS011;54392;53.556;49.214;2022-11-24T02:35:44;7.62;;;4.18;;
67562;SDS011;54392;53.556;49.214;2022-11-24T02:38:26;5.60;;;4.55;;
67562;SDS011;54392;53.556;49.214;2022-11-24T02:40:56;4.78;;;4.00;;
67562;SDS011;54392;53.556;49.214;2022-11-24T02:43:31;5.40;;;3.53;;
67562;SDS011;54392;53.556;49.214;2022-11-24T02:46:11;6.30;;;4.20;;
67562;SDS011;54392;53.556;49.214;2022-11-24T02:48:42;5.95;;;4.05;;
67562;SDS011;54392;53.556;49.214;2022-11-24T02:51:15;6.05;;;5.43;;
67562;SDS011;54392;53.556;49.214;2022-11-24T02:53:46;7.55;;;4.97;;
67562;SDS011;54392;53.556;49.214;2022-11-24T02:56:20;6.97;;;5.18;;
67562;SDS011;54392;53.556;49.214;2022-11-24T02:58:47;7.78;;;4.03;;
67562;SDS011;54392;53.556;49.214;2022-11-24T03:01:13;4.72;;;3.65;;
67562;SDS011;54392;53.556;49.214;2022-11-24T03:03:39;6.65;;;4.53;;
67562;SDS011;54392;53.556;49.214;2022-11-24T03:06:08;6.90;;;5.75;;
67562;SDS011;54392;53.556;49.214;2022-11-24T03:08:43;5.03;;;4.05;;
67562;SDS011;54392;53.556;49.214;2022-11-24T03:11:11;6.15;;;4.37;;
67562;SDS011;54392;53.556;49.214;2022-11-24T03:13:46;9.75;;;3.42;;
67562;SDS011;54392;53.556;49.214;2022-11-24T03:16:16;5.25;;;4.32;;
67562;SDS011;54392;53.556;49.214;2022-11-24T03:18:43;5.75;;;4.65;;
67562;SDS011;54392;53.556;49.214;2022-11-24T03:21:09;5.47;;;3.97;;
67562;SDS011;54392;53.556;49.214;2022-11-24T03:23:37;5.60;;;4.03;;
67562;SDS011;54392;53.556;49.214;2022-11-24T03:26:07;4.75;;;3.67;;
67562;SDS011;54392;53.556;49.214;2022-11-24T03:28:37;4.62;;;2.87;;
67562;SDS011;54392;53.556;49.214;2022-11-24T03:31:07;3.72;;;3.30;;
67562;SDS011;54392;53.556;49.214;2022-11-24T03:33:36;5.07;;;3.55;;
67562;SDS011;54392;53.556;49.214;2022-11-24T03:36:11;5.80;;;5.20;;
67562;SDS011;54392;53.556;49.214;2022-11-24T03:38:40;5.53;;;4.03;;
67562;SDS011;54392;53.556;49.214;2022-11-24T03:41:09;8.07;;;4.35;;
67562;SDS011;54392;53.556;49.214;2022-11-24T03:43:40;5.93;;;4.40;;
67562;SDS011;54392;53.556;49.214;2022-11-24T03:46:10;8.98;;;4.43;;
67562;SDS011;54392;53.556;49.214;2022-11-24T03:48:40;6.25;;;4.10;;
67562;SDS011;54392;53.556;49.214;2022-11-24T03:51:12;4.03;;;3.67;;
67562;SDS011;54392;53.556;49.214;2022-11-24T03:53:39;4.93;;;4.15;;
67562;SDS011;54392;53.556;49.214;2022-11-24T03:56:08;12.90;;;4.22;;
67562;SDS011;54392;53.556;49.214;2022-11-24T03:58:34;4.03;;;3.47;;
67562;SDS011;54392;53.556;49.214;2022-11-24T04:01:09;3.20;;;2.80;;
67562;SDS011;54392;53.556;49.214;2022-11-24T04:03:37;4.93;;;3.47;;
67562;SDS011;54392;53.556;49.214;2022-11-24T04:06:05;5.00;;;3.42;;
67562;SDS011;54392;53.556;49.214;2022-11-24T04:08:36;5.47;;;4.10;;
67562;SDS011;54392;53.556;49.214;2022-11-24T04:11:05;5.63;;;3.83;;
67562;SDS011;54392;53.556;49.214;2022-11-24T04:13:32;4.90;;;3.80;;
67562;SDS011;54392;53.556;49.214;2022-11-24T04:16:06;5.40;;;4.28;;
67562;SDS011;54392;53.556;49.214;2022-11-24T04:18:38;6.40;;;3.75;;
67562;SDS011;54392;53.556;49.214;2022-11-24T04:21:10;4.60;;;4.12;;
67562;SDS011;54392;53.556;49.214;2022-11-24T04:23:39;6.95;;;4.45;;
67562;SDS011;54392;53.556;49.214;2022-11-24T04:26:07;8.30;;;4.60;;
67562;SDS011;54392;53.556;49.214;2022-11-24T04:28:38;6.05;;;3.60;;
67562;SDS011;54392;53.556;49.214;2022-11-24T04:31:04;6.40;;;5.05;;
67562;SDS011;54392;53.556;49.214;2022-11-24T04:33:31;5.30;;;4.25;;
67562;SDS011;54392;53.556;49.214;2022-11-24T04:36:03;4.55;;;3.42;;
67562;SDS011;54392;53.556;49.214;2022-11-24T04:38:31;4.60;;;4.15;;
67562;SDS011;54392;53.556;49.214;2022-11-24T04:41:05;5.22;;;4.72;;
67562;SDS011;54392;53.556;49.214;2022-11-24T04:43:42;5.57;;;4.80;;
67562;SDS011;54392;53.556;49.214;2022-11-24T04:46:10;6.15;;;4.90;;
67562;SDS011;54392;53.556;49.214;2022-11-24T04:48:36;7.25;;;4.45;;
67562;SDS011;54392;53.556;49.214;2022-11-24T04:51:03;6.28;;;4.62;;
67562;SDS011;54392;53.556;49.214;2022-11-24T04:53:33;6.32;;;4.80;;
67562;SDS011;54392;53.556;49.214;2022-11-24T04:56:06;7.85;;;4.60;;
67562;SDS011;54392;53.556;49.214;2022-11-24T04:58:33;7.57;;;5.80;;
67562;SDS011;54392;53.556;49.214;2022-11-24T05:01:07;6.47;;;5.30;;
67562;SDS011;54392;53.556;49.214;2022-11-24T05:06:06;9.82;;;6.32;;
67562;SDS011;54392;53.556;49.214;2022-11-24T05:08:38;10.43;;;6.20;;
67562;SDS011;54392;53.556;49.214;2022-11-24T05:11:04;14.85;;;6.62;;
67562;SDS011;54392;53.556;49.214;2022-11-24T05:13:36;7.18;;;4.20;;
67562;SDS011;54392;53.556;49.214;2022-11-24T05:16:05;8.80;;;5.55;;
67562;SDS011;54392;53.556;49.214;2022-11-24T05:18:38;9.43;;;5.50;;
67562;SDS011;54392;53.556;49.214;2022-11-24T05:21:05;7.05;;;4.35;;
67562;SDS011;54392;53.556;49.214;2022-11-24T05:23:34;10.43;;;5.45;;
67562;SDS011;54392;53.556;49.214;2022-11-24T05:26:03;5.78;;;4.45;;
67562;SDS011;54392;53.556;49.214;2022-11-24T05:28:30;8.15;;;6.50;;
67562;SDS011;54392;53.556;49.214;2022-11-24T05:30:57;5.72;;;4.62;;
67562;SDS011;54392;53.556;49.214;2022-11-24T05:33:24;5.53;;;4.95;;
67562;SDS011;54392;53.556;49.214;2022-11-24T05:35:53;6.68;;;5.53;;
67562;SDS011;54392;53.556;49.214;2022-11-24T05:38:19;5.95;;;5.00;;
67562;SDS011;54392;53.556;49.214;2022-11-24T05:40:51;9.02;;;7.15;;
67562;SDS011;54392;53.556;49.214;2022-11-24T05:43:21;8.27;;;6.18;;
67562;SDS011;54392;53.556;49.214;2022-11-24T05:45:47;11.35;;;5.30;;
67562;SDS011;54392;53.556;49.214;2022-11-24T05:48:13;7.97;;;6.87;;
67562;SDS011;54392;53.556;49.214;2022-11-24T05:50:40;8.10;;;6.28;;
67562;SDS011;54392;53.556;49.214;2022-11-24T05:53:08;9.02;;;6.62;;
67562;SDS011;54392;53.556;49.214;2022-11-24T05:55:38;9.77;;;6.95;;
67562;SDS011;54392;53.556;49.214;2022-11-24T05:58:05;9.52;;;6.95;;
67562;SDS011;54392;53.556;49.214;2022-11-24T06:00:34;12.18;;;7.03;;
67562;SDS011;54392;53.556;49.214;2022-11-24T06:03:04;6.80;;;5.00;;
67562;SDS011;54392;53.556;49.214;2022-11-24T06:05:35;7.43;;;6.55;;
67562;SDS011;54392;53.556;49.214;2022-11-24T06:08:04;9.10;;;6.72;;
67562;SDS011;54392;53.556;49.214;2022-11-24T06:10:30;14.70;;;7.95;;
67562;SDS011;54392;53.556;49.214;2022-11-24T06:12:56;12.52;;;8.77;;
67562;SDS011;54392;53.556;49.214;2022-11-24T06:15:22;12.90;;;8.45;;
67562;SDS011;54392;53.556;49.214;2022-11-24T06:17:55;12.15;;;9.23;;
67562;SDS011;54392;53.556;49.214;2022-11-24T06:20:22;14.15;;;8.50;;
67562;SDS011;54392;53.556;49.214;2022-11-24T06:22:48;13.73;;;8.48;;
67562;SDS011;54392;53.556;49.214;2022-11-24T06:25:14;11.35;;;8.70;;
67562;SDS011;54392;53.556;49.214;2022-11-24T06:27:41;13.18;;;9.45;;
67562;SDS011;54392;53.556;49.214;2022-11-24T06:30:07;12.32;;;8.57;;
67562;SDS011;54392;53.556;49.214;2022-11-24T06:32:34;13.80;;;7.43;;
67562;SDS011;54392;53.556;49.214;2022-11-24T06:35:00;21.90;;;10.13;;
67562;SDS011;54392;53.556;49.214;2022-11-24T06:37:26;12.32;;;8.30;;
67562;SDS011;54392;53.556;49.214;2022-11-24T06:39:53;13.60;;;7.35;;
67562;SDS011;54392;53.556;49.214;2022-11-24T06:42:22;12.75;;;6.30;;
67562;SDS011;54392;53.556;49.214;2022-11-24T06:44:49;10.90;;;7.43;;
67562;SDS011;54392;53.556;49.214;2022-11-24T06:47:22;10.05;;;5.95;;
67562;SDS011;54392;53.556;49.214;2022-11-24T06:52:37;11.80;;;6.55;;
67562;SDS011;54392;53.556;49.214;2022-11-24T06:55:11;8.57;;;5.80;;
67562;SDS011;54392;53.556;49.214;2022-11-24T06:57:50;6.25;;;5.62;;
67562;SDS011;54392;53.556;49.214;2022-11-24T07:00:22;7.25;;;6.03;;
67562;SDS011;54392;53.556;49.214;2022-11-24T07:02:48;7.45;;;5.72;;
67562;SDS011;54392;53.556;49.214;2022-11-24T07:05:14;8.25;;;6.37;;
67562;SDS011;54392;53.556;49.214;2022-11-24T07:07:41;6.65;;;5.78;;
67562;SDS011;54392;53.556;49.214;2022-11-24T07:13:32;10.98;;;6.78;;
67562;SDS011;54392;53.556;49.214;2022-11-24T07:16:12;8.90;;;7.18;;
67562;SDS011;54392;53.556;49.214;2022-11-24T07:18:43;9.03;;;6.97;;
67562;SDS011;54392;53.556;49.214;2022-11-24T07:21:16;11.02;;;8.43;;
67562;SDS011;54392;53.556;49.214;2022-11-24T07:23:49;10.52;;;6.65;;
67562;SDS011;54392;53.556;49.214;2022-11-24T07:26:18;25.40;;;8.85;;
67562;SDS011;54392;53.556;49.214;2022-11-24T07:28:45;12.63;;;7.22;;
67562;SDS011;54392;53.556;49.214;2022-11-24T07:31:16;18.73;;;7.97;;
67562;SDS011;54392;53.556;49.214;2022-11-24T07:33:47;29.73;;;9.43;;
67562;SDS011;54392;53.556;49.214;2022-11-24T07:36:21;11.65;;;9.60;;
67562;SDS011;54392;53.556;49.214;2022-11-24T07:38:49;56.83;;;12.73;;
67562;SDS011;54392;53.556;49.214;2022-11-24T07:41:27;21.42;;;9.32;;
67562;SDS011;54392;53.556;49.214;2022-11-24T07:43:54;13.45;;;9.63;;
67562;SDS011;54392;53.556;49.214;2022-11-24T07:46:32;49.08;;;11.43;;
67562;SDS011;54392;53.556;49.214;2022-11-24T07:49:00;22.75;;;7.55;;
67562;SDS011;54392;53.556;49.214;2022-11-24T07:51:26;21.20;;;10.73;;
67562;SDS011;54392;53.556;49.214;2022-11-24T07:53:56;23.67;;;8.82;;
67562;SDS011;54392;53.556;49.214;2022-11-24T07:56:24;15.15;;;10.90;;
67562;SDS011;54392;53.556;49.214;2022-11-24T07:58:52;36.88;;;10.63;;
67562;SDS011;54392;53.556;49.214;2022-11-24T08:01:20;12.37;;;10.55;;
67562;SDS011;54392;53.556;49.214;2022-11-24T08:03:47;20.58;;;8.60;;
67562;SDS011;54392;53.556;49.214;2022-11-24T08:06:14;18.98;;;11.27;;
67562;SDS011;54392;53.556;49.214;2022-11-24T08:08:43;10.75;;;8.20;;
67562;SDS011;54392;53.556;49.214;2022-11-24T08:11:11;14.70;;;10.05;;
67562;SDS011;54392;53.556;49.214;2022-11-24T08:13:45;14.10;;;9.65;;
67562;SDS011;54392;53.556;49.214;2022-11-24T08:16:12;101.72;;;54.72;;
67562;SDS011;54392;53.556;49.214;2022-11-24T08:18:47;25.50;;;12.77;;
67562;SDS011;54392;53.556;49.214;2022-11-24T08:21:23;14.23;;;8.05;;
67562;SDS011;54392;53.556;49.214;2022-11-24T08:23:57;35.75;;;12.73;;
67562;SDS011;54392;53.556;49.214;2022-11-24T08:28:54;16.95;;;9.23;;
67562;SDS011;54392;53.556;49.214;2022-11-24T08:31:22;45.90;;;12.02;;
67562;SDS011;54392;53.556;49.214;2022-11-24T08:33:58;14.80;;;9.23;;
67562;SDS011;54392;53.556;49.214;2022-11-24T08:36:30;18.40;;;9.68;;
67562;SDS011;54392;53.556;49.214;2022-11-24T08:38:57;17.98;;;9.95;;
67562;SDS011;54392;53.556;49.214;2022-11-24T08:41:27;15.30;;;8.13;;
67562;SDS011;54392;53.556;49.214;2022-11-24T08:43:54;17.17;;;12.23;;
67562;SDS011;54392;53.556;49.214;2022-11-24T08:46:25;14.23;;;8.23;;
67562;SDS011;54392;53.556;49.214;2022-11-24T08:48:52;18.65;;;9.05;;
67562;SDS011;54392;53.556;49.214;2022-11-24T08:51:20;13.68;;;9.55;;
67562;SDS011;54392;53.556;49.214;2022-11-24T08:53:53;13.40;;;8.68;;
67562;SDS011;54392;53.556;49.214;2022-11-24T08:56:21;12.68;;;10.02;;
67562;SDS011;54392;53.556;49.214;2022-11-24T08:58:47;13.27;;;9.52;;
67562;SDS011;54392;53.556;49.214;2022-11-24T09:01:16;11.55;;;9.95;;
67562;SDS011;54392;53.556;49.214;2022-11-24T09:03:43;10.93;;;9.60;;
67562;SDS011;54392;53.556;49.214;2022-11-24T09:06:12;14.07;;;10.77;;
67562;SDS011;54392;53.556;49.214;2022-11-24T09:08:39;12.80;;;8.80;;
67562;SDS011;54392;53.556;49.214;2022-11-24T09:11:06;9.45;;;8.23;;
67562;SDS011;54392;53.556;49.214;2022-11-24T09:13:40;8.70;;;7.35;;
67562;SDS011;54392;53.556;49.214;2022-11-24T09:16:14;11.75;;;7.95;;
67562;SDS011;54392;53.556;49.214;2022-11-24T09:18:42;14.73;;;8.50;;
67562;SDS011;54392;53.556;49.214;2022-11-24T09:23:35;8.13;;;7.05;;
67562;SDS011;54392;53.556;49.214;2022-11-24T09:26:02;9.60;;;7.05;;
67562;SDS011;54392;53.556;49.214;2022-11-24T09:28:38;8.63;;;5.70;;
67562;SDS011;54392;53.556;49.214;2022-11-24T09:31:20;8.98;;;7.68;;
67562;SDS011;54392;53.556;49.214;2022-11-24T09:33:53;6.70;;;5.53;;
67562;SDS011;54392;53.556;49.214;2022-11-24T09:36:30;8.02;;;5.40;;
67562;SDS011;54392;53.556;49.214;2022-11-24T09:38:59;7.37;;;6.68;;
67562;SDS011;54392;53.556;49.214;2022-11-24T09:47:19;8.38;;;6.18;;
67562;SDS011;54392;53.556;49.214;2022-11-24T09:50:22;6.78;;;5.87;;
67562;SDS011;54392;53.556;49.214;2022-11-24T09:53:10;9.32;;;7.10;;
67562;SDS011;54392;53.556;49.214;2022-11-24T09:55:49;7.35;;;6.65;;
67562;SDS011;54392;53.556;49.214;2022-11-24T10:01:06;8.90;;;6.53;;
67562;SDS011;54392;53.556;49.214;2022-11-24T10:03:38;7.32;;;5.95;;
67562;SDS011;54392;53.556;49.214;2022-11-24T10:06:16;12.77;;;8.15;;
67562;SDS011;54392;53.556;49.214;2022-11-24T10:14:40;10.75;;;7.55;;
67562;SDS011;54392;53.556;49.214;2022-11-24T10:17:37;7.05;;;5.82;;
67562;SDS011;54392;53.556;49.214;2022-11-24T10:23:06;7.80;;;6.50;;
67562;SDS011;54392;53.556;49.214;2022-11-24T10:28:14;7.03;;;5.57;;
67562;SDS011;54392;53.556;49.214;2022-11-24T10:30:41;7.28;;;5.85;;
67562;SDS011;54392;53.556;49.214;2022-11-24T10:35:54;10.85;;;7.07;;
67562;SDS011;54392;53.556;49.214;2022-11-24T10:41:08;8.48;;;7.68;;
67562;SDS011;54392;53.556;49.214;2022-11-24T10:43:43;8.55;;;7.30;;
67562;SDS011;54392;53.556;49.214;2022-11-24T10:48:48;11.52;;;9.40;;
67562;SDS011;54392;53.556;49.214;2022-11-24T10:51:55;14.45;;;8.95;;
67562;SDS011;54392;53.556;49.214;2022-11-24T10:54:33;11.15;;;8.45;;
67562;SDS011;54392;53.556;49.214;2022-11-24T10:57:02;15.88;;;9.38;;
67562;SDS011;54392;53.556;49.214;2022-11-24T11:02:46;12.30;;;9.80;;
67562;SDS011;54392;53.556;49.214;2022-11-24T11:04:53;17.48;;;9.82;;
67562;SDS011;54392;53.556;49.214;2022-11-24T11:07:23;11.73;;;8.23;;
67562;SDS011;54392;53.556;49.214;2022-11-24T11:10:09;13.73;;;9.23;;
67562;SDS011;54392;53.556;49.214;2022-11-24T11:12:43;12.63;;;9.27;;
67562;SDS011;54392;53.556;49.214;2022-11-24T11:15:25;16.33;;;11.93;;
67562;SDS011;54392;53.556;49.214;2022-11-24T11:18:11;13.20;;;11.45;;
67562;SDS011;54392;53.556;49.214;2022-11-24T11:20:41;14.30;;;10.45;;
67562;SDS011;54392;53.556;49.214;2022-11-24T11:23:33;14.43;;;10.52;;
67562;SDS011;54392;53.556;49.214;2022-11-24T11:28:57;12.48;;;10.60;;
67562;SDS011;54392;53.556;49.214;2022-11-24T11:31:40;13.10;;;10.85;;
67562;SDS011;54392;53.556;49.214;2022-11-24T11:34:17;15.55;;;12.63;;
67562;SDS011;54392;53.556;49.214;2022-11-24T11:36:45;25.15;;;13.60;;
67562;SDS011;54392;53.556;49.214;2022-11-24T11:39:24;18.40;;;11.45;;
67562;SDS011;54392;53.556;49.214;2022-11-24T11:42:16;25.12;;;13.07;;
67562;SDS011;54392;53.556;49.214;2022-11-24T11:45:10;11.18;;;10.02;;
67562;SDS011;54392;53.556;49.214;2022-11-24T11:47:44;15.20;;;10.30;;
67562;SDS011;54392;53.556;49.214;2022-11-24T11:50:32;13.13;;;10.90;;
67562;SDS011;54392;53.556;49.214;2022-11-24T11:53:04;34.53;;;12.60;;
67562;SDS011;54392;53.556;49.214;2022-11-24T11:58:31;13.73;;;10.05;;
67562;SDS011;54392;53.556;49.214;2022-11-24T12:07:12;14.95;;;12.90;;
67562;SDS011;54392;53.556;49.214;2022-11-24T12:15:49;21.12;;;14.60;;
67562;SDS011;54392;53.556;49.214;2022-11-24T12:18:29;22.42;;;13.23;;
67562;SDS011;54392;53.556;49.214;2022-11-24T12:21:01;14.13;;;10.68;;
67562;SDS011;54392;53.556;49.214;2022-11-24T12:26:04;10.75;;;9.65;;
67562;SDS011;54392;53.556;49.214;2022-11-24T12:45:21;9.23;;;6.57;;
67562;SDS011;54392;53.556;49.214;2022-11-24T12:50:50;12.30;;;9.82;;
67562;SDS011;54392;53.556;49.214;2022-11-24T12:53:26;15.23;;;9.88;;
67562;SDS011;54392;53.556;49.214;2022-11-24T12:56:03;19.25;;;11.75;;
67562;SDS011;54392;53.556;49.214;2022-11-24T12:58:41;15.07;;;11.80;;
67562;SDS011;54392;53.556;49.214;2022-11-24T13:06:37;17.48;;;11.48;;
67562;SDS011;54392;53.556;49.214;2022-11-24T13:09:12;16.02;;;12.00;;
67562;SDS011;54392;53.556;49.214;2022-11-24T13:11:50;20.23;;;15.27;;
67562;SDS011;54392;53.556;49.214;2022-11-24T13:14:30;15.57;;;12.32;;
67562;SDS011;54392;53.556;49.214;2022-11-24T13:22:47;19.60;;;12.90;;
67562;SDS011;54392;53.556;49.214;2022-11-24T13:25:25;25.67;;;14.48;;
67562;SDS011;54392;53.556;49.214;2022-11-24T13:27:57;23.48;;;15.85;;
67562;SDS011;54392;53.556;49.214;2022-11-24T13:35:38;20.62;;;12.80;;
67562;SDS011;54392;53.556;49.214;2022-11-24T13:41:06;16.80;;;14.45;;
67562;SDS011;54392;53.556;49.214;2022-11-24T13:43:33;17.20;;;15.15;;
67562;SDS011;54392;53.556;49.214;2022-11-24T13:46:00;23.15;;;13.25;;
67562;SDS011;54392;53.556;49.214;2022-11-24T13:53:43;19.87;;;14.07;;
67562;SDS011;54392;53.556;49.214;2022-11-24T13:58:43;21.27;;;15.35;;
67562;SDS011;54392;53.556;49.214;2022-11-24T14:01:31;19.70;;;13.25;;
67562;SDS011;54392;53.556;49.214;2022-11-24T14:09:21;19.48;;;14.07;;
67562;SDS011;54392;53.556;49.214;2022-11-24T14:14:45;22.00;;;17.42;;
67562;SDS011;54392;53.556;49.214;2022-11-24T14:17:24;23.05;;;14.20;;
67562;SDS011;54392;53.556;49.214;2022-11-24T14:19:54;22.55;;;15.98;;
67562;SDS011;54392;53.556;49.214;2022-11-24T14:25:00;21.75;;;19.20;;
67562;SDS011;54392;53.556;49.214;2022-11-24T14:27:36;27.05;;;16.30;;
67562;SDS011;54392;53.556;49.214;2022-11-24T14:30:15;29.73;;;19.70;;
67562;SDS011;54392;53.556;49.214;2022-11-24T14:32:56;28.52;;;21.58;;
67562;SDS011;54392;53.556;49.214;2022-11-24T14:35:27;33.30;;;19.37;;
67562;SDS011;54392;53.556;49.214;2022-11-24T14:38:00;26.65;;;18.30;;
67562;SDS011;54392;53.556;49.214;2022-11-24T14:40:38;28.15;;;18.20;;
67562;SDS011;54392;53.556;49.214;2022-11-24T14:43:14;28.70;;;19.52;;
67562;SDS011;54392;53.556;49.214;2022-11-24T14:45:50;27.95;;;20.85;;
67562;SDS011;54392;53.556;49.214;2022-11-24T14:48:19;29.92;;;19.25;;
67562;SDS011;54392;53.556;49.214;2022-11-24T14:50:49;25.60;;;19.73;;
67562;SDS011;54392;53.556;49.214;2022-11-24T14:53:19;31.35;;;18.90;;
67562;SDS011;54392;53.556;49.214;2022-11-24T14:56:05;25.23;;;19.95;;
67562;SDS011;54392;53.556;49.214;2022-11-24T14:58:53;27.98;;;18.87;;
67562;SDS011;54392;53.556;49.214;2022-11-24T15:06:38;24.95;;;17.67;;
67562;SDS011;54392;53.556;49.214;2022-11-24T15:09:21;25.48;;;19.70;;
67562;SDS011;54392;53.556;49.214;2022-11-24T15:11:54;21.73;;;19.27;;
67562;SDS011;54392;53.556;49.214;2022-11-24T15:17:03;26.45;;;19.02;;
67562;SDS011;54392;53.556;49.214;2022-11-24T15:19:33;30.08;;;21.12;;
67562;SDS011;54392;53.556;49.214;2022-11-24T15:22:11;31.15;;;21.33;;
67562;SDS011;54392;53.556;49.214;2022-11-24T15:24:56;22.33;;;18.27;;
67562;SDS011;54392;53.556;49.214;2022-11-24T15:27:22;32.17;;;20.88;;
67562;SDS011;54392;53.556;49.214;2022-11-24T15:29:48;33.35;;;21.87;;
67562;SDS011;54392;53.556;49.214;2022-11-24T15:32:14;30.05;;;21.30;;
67562;SDS011;54392;53.556;49.214;2022-11-24T15:34:43;32.85;;;21.90;;
67562;SDS011;54392;53.556;49.214;2022-11-24T15:37:12;41.28;;;26.75;;
67562;SDS011;54392;53.556;49.214;2022-11-24T15:39:41;35.67;;;24.60;;
67562;SDS011;54392;53.556;49.214;2022-11-24T15:42:08;39.28;;;23.30;;
67562;SDS011;54392;53.556;49.214;2022-11-24T15:44:38;27.35;;;17.98;;
67562;SDS011;54392;53.556;49.214;2022-11-24T15:47:07;27.73;;;20.35;;
67562;SDS011;54392;53.556;49.214;2022-11-24T15:49:33;27.83;;;18.85;;
67562;SDS011;54392;53.556;49.214;2022-11-24T15:52:05;39.00;;;20.60;;
67562;SDS011;54392;53.556;49.214;2022-11-24T15:54:34;33.83;;;23.45;;
67562;SDS011;54392;53.556;49.214;2022-11-24T15:57:01;41.13;;;21.37;;
67562;SDS011;54392;53.556;49.214;2022-11-24T15:59:29;26.00;;;19.83;;
67562;SDS011;54392;53.556;49.214;2022-11-24T16:01:59;26.15;;;19.23;;
67562;SDS011;54392;53.556;49.214;2022-11-24T16:04:26;31.62;;;20.42;;
67562;SDS011;54392;53.556;49.214;2022-11-24T16:06:52;25.48;;;18.12;;
67562;SDS011;54392;53.556;49.214;2022-11-24T16:09:21;25.27;;;18.85;;
67562;SDS011;54392;53.556;49.214;2022-11-24T16:11:47;27.60;;;19.73;;
67562;SDS011;54392;53.556;49.214;2022-11-24T16:14:14;29.27;;;21.80;;
67562;SDS011;54392;53.556;49.214;2022-11-24T16:16:40;25.58;;;16.95;;
67562;SDS011;54392;53.556;49.214;2022-11-24T16:19:07;28.40;;;18.05;;
67562;SDS011;54392;53.556;49.214;2022-11-24T16:21:34;28.17;;;20.50;;
67562;SDS011;54392;53.556;49.214;2022-11-24T16:24:00;31.55;;;20.33;;
67562;SDS011;54392;53.556;49.214;2022-11-24T16:26:29;40.58;;;22.20;;
67562;SDS011;54392;53.556;49.214;2022-11-24T16:28:55;33.55;;;23.55;;
67562;SDS011;54392;53.556;49.214;2022-11-24T16:31:22;32.92;;;19.67;;
67562;SDS011;54392;53.556;49.214;2022-11-24T16:33:52;30.33;;;21.20;;
67562;SDS011;54392;53.556;49.214;2022-11-24T16:36:19;34.58;;;21.67;;
67562;SDS011;54392;53.556;49.214;2022-11-24T16:38:45;29.10;;;20.50;;
67562;SDS011;54392;53.556;49.214;2022-11-24T16:41:12;28.15;;;19.62;;
67562;SDS011;54392;53.556;49.214;2022-11-24T16:43:38;30.27;;;19.95;;
67562;SDS011;54392;53.556;49.214;2022-11-24T16:48:41;27.55;;;18.83;;
67562;SDS011;54392;53.556;49.214;2022-11-24T16:51:18;40.83;;;23.40;;
67562;SDS011;54392;53.556;49.214;2022-11-24T16:53:45;30.10;;;19.42;;
67562;SDS011;54392;53.556;49.214;2022-11-24T16:56:11;24.77;;;15.48;;
67562;SDS011;54392;53.556;49.214;2022-11-24T16:58:39;29.95;;;19.48;;
67562;SDS011;54392;53.556;49.214;2022-11-24T17:01:06;27.30;;;20.70;;
67562;SDS011;54392;53.556;49.214;2022-11-24T17:03:35;29.45;;;15.35;;
67562;SDS011;54392;53.556;49.214;2022-11-24T17:06:09;23.02;;;16.77;;
67562;SDS011;54392;53.556;49.214;2022-11-24T17:08:39;30.65;;;17.70;;
67562;SDS011;54392;53.556;49.214;2022-11-24T17:11:13;26.08;;;21.60;;